createdAt,value
2023-04-09T00:02:20.275Z,87.15
2023-04-09T00:04:48.386Z,87.34
2023-04-09T00:07:16.114Z,87.47
2023-04-09T00:09:43.919Z,87.16
2023-04-09T00:12:12.895Z,87.60
2023-04-09T00:14:41.299Z,87.31
2023-04-09T00:17:09.025Z,87.48
2023-04-09T00:19:36.919Z,87.45
2023-04-09T00:22:04.491Z,87.39
2023-04-09T00:24:32.207Z,87.35
2023-04-09T00:26:59.784Z,87.44
2023-04-09T00:29:28.854Z,87.47
2023-04-09T00:31:56.712Z,87.62
2023-04-09T00:34:24.366Z,87.60
2023-04-09T00:36:52.005Z,87.64
2023-04-09T00:39:19.775Z,87.32
2023-04-09T00:41:47.454Z,87.14
2023-04-09T00:44:15.358Z,86.94
2023-04-09T00:46:44.602Z,86.73
2023-04-09T00:49:12.363Z,86.43
2023-04-09T00:51:40.094Z,86.42
2023-04-09T00:54:08.478Z,86.69
2023-04-09T00:56:37.892Z,86.59
2023-04-09T00:59:05.946Z,87.07
2023-04-09T01:01:33.815Z,86.83
2023-04-09T01:04:03.336Z,86.58
2023-04-09T01:06:40.815Z,86.70
2023-04-09T01:09:16.535Z,86.60
2023-04-09T01:11:51.694Z,86.37
2023-04-09T01:14:26.391Z,86.77
2023-04-09T01:17:00.857Z,86.58
2023-04-09T01:19:54.415Z,86.71
2023-04-09T01:22:33.628Z,86.82
2023-04-09T01:25:13.614Z,86.70
2023-04-09T01:27:59.636Z,86.84
2023-04-09T01:30:30.433Z,86.80
2023-04-09T01:32:59.199Z,87.09
2023-04-09T01:35:29.466Z,86.76
2023-04-09T01:37:58.214Z,86.91
2023-04-09T01:40:26.023Z,87.22
2023-04-09T01:42:55.629Z,87.11
2023-04-09T01:45:24.059Z,87.00
2023-04-09T01:47:55.654Z,86.72
2023-04-09T01:50:23.661Z,86.79
2023-04-09T01:52:51.842Z,86.63
2023-04-09T01:55:19.854Z,86.62
2023-04-09T01:57:47.494Z,86.61
2023-04-09T02:00:16.438Z,86.79
2023-04-09T02:02:49.978Z,86.91
2023-04-09T02:05:23.086Z,87.12
2023-04-09T02:07:55.387Z,87.15
2023-04-09T02:10:27.521Z,86.97
2023-04-09T02:12:57.155Z,87.05
2023-04-09T02:15:25.932Z,87.03
2023-04-09T02:17:53.674Z,87.04
2023-04-09T02:20:22.886Z,87.20
2023-04-09T02:22:50.606Z,87.43
2023-04-09T02:25:18.572Z,87.58
2023-04-09T02:27:46.186Z,87.46
2023-04-09T02:30:14.005Z,87.33
2023-04-09T02:32:41.699Z,87.41
2023-04-09T02:35:10.111Z,87.12
2023-04-09T02:37:39.061Z,87.25
2023-04-09T02:40:07.444Z,87.01
2023-04-09T02:42:35.026Z,87.17
2023-04-09T02:45:02.638Z,86.96
2023-04-09T02:47:32.563Z,87.05
2023-04-09T02:50:00.196Z,86.78
2023-04-09T02:52:29.756Z,86.85
2023-04-09T02:54:58.747Z,86.62
2023-04-09T02:57:26.399Z,86.60
2023-04-09T02:59:54.105Z,86.56
2023-04-09T03:02:22.045Z,86.73
2023-04-09T03:04:49.858Z,86.77
2023-04-09T03:07:17.636Z,86.70
2023-04-09T03:09:45.263Z,86.56
2023-04-09T03:12:15.313Z,86.55
2023-04-09T03:14:42.917Z,86.42
2023-04-09T03:17:10.641Z,86.55
2023-04-09T03:19:38.308Z,86.37
2023-04-09T03:22:06.530Z,86.31
2023-04-09T03:24:34.329Z,86.46
2023-04-09T03:27:05.777Z,86.47
2023-04-09T03:29:35.405Z,86.06
2023-04-09T03:32:03.468Z,85.72
2023-04-09T03:34:31.139Z,85.75
2023-04-09T03:36:59.220Z,85.55
2023-04-09T03:39:31.054Z,86.24
2023-04-09T03:41:59.001Z,86.44
2023-04-09T03:44:30.608Z,86.39
2023-04-09T03:47:05.440Z,86.57
2023-04-09T03:49:35.990Z,86.53
2023-04-09T03:52:13.528Z,86.50
2023-04-09T03:54:45.007Z,86.21
2023-04-09T03:57:18.100Z,86.04
2023-04-09T03:59:48.596Z,86.02
2023-04-09T04:02:21.685Z,86.18
2023-04-09T04:04:58.172Z,86.31
2023-04-09T04:07:30.075Z,86.28
2023-04-09T04:10:05.411Z,86.48
2023-04-09T04:12:33.979Z,86.76
2023-04-09T04:15:09.755Z,86.71
2023-04-09T04:17:53.382Z,86.61
2023-04-09T04:20:41.286Z,86.62
2023-04-09T04:23:13.230Z,86.65
2023-04-09T04:25:58.011Z,86.84
2023-04-09T04:28:31.263Z,86.72
2023-04-09T04:30:59.669Z,86.78
2023-04-09T04:33:31.435Z,86.99
2023-04-09T04:36:06.343Z,86.85
2023-04-09T04:38:39.372Z,86.86
2023-04-09T04:41:14.047Z,86.78
2023-04-09T04:43:48.330Z,86.83
2023-04-09T04:46:21.337Z,86.94
2023-04-09T04:48:51.004Z,86.91
2023-04-09T04:51:18.940Z,86.81
2023-04-09T04:53:59.341Z,86.73
2023-04-09T04:56:27.581Z,86.64
2023-04-09T04:59:03.953Z,86.70
2023-04-09T05:01:43.393Z,86.83
2023-04-09T05:04:15.238Z,86.93
2023-04-09T05:06:42.859Z,86.74
2023-04-09T05:09:16.408Z,86.49
2023-04-09T05:11:56.934Z,86.25
2023-04-09T05:14:25.568Z,86.08
2023-04-09T05:16:53.489Z,86.19
2023-04-09T05:19:26.630Z,86.23
2023-04-09T05:22:01.218Z,86.06
2023-04-09T05:24:29.216Z,86.18
2023-04-09T05:26:57.483Z,86.16
2023-04-09T05:29:26.242Z,85.36
2023-04-09T05:31:53.940Z,85.21
2023-04-09T05:34:33.965Z,86.04
2023-04-09T05:37:01.562Z,86.07
2023-04-09T05:39:29.270Z,86.34
2023-04-09T05:42:00.897Z,86.83
2023-04-09T05:44:33.671Z,86.82
2023-04-09T05:47:07.174Z,87.03
2023-04-09T05:49:45.244Z,86.53
2023-04-09T05:52:15.982Z,86.90
2023-04-09T05:54:44.083Z,86.34
2023-04-09T05:57:13.024Z,86.02
2023-04-09T05:59:44.872Z,85.53
2023-04-09T06:02:12.567Z,85.70
2023-04-09T06:04:40.253Z,85.15
2023-04-09T06:07:09.232Z,84.55
2023-04-09T06:09:37.193Z,84.14
2023-04-09T06:12:05.159Z,84.06
2023-04-09T06:14:33.778Z,83.13
2023-04-09T06:17:01.427Z,83.63
2023-04-09T06:19:29.244Z,83.76
2023-04-09T06:21:56.839Z,82.99
2023-04-09T06:24:26.448Z,83.07
2023-04-09T06:26:54.024Z,82.92
2023-04-09T06:29:23.821Z,82.97
2023-04-09T06:31:51.960Z,82.68
2023-04-09T06:34:19.783Z,82.22
2023-04-09T06:36:47.338Z,82.84
2023-04-09T06:39:15.026Z,81.90
2023-04-09T06:41:43.951Z,81.82
2023-04-09T06:44:35.788Z,81.09
2023-04-09T06:47:03.439Z,81.06
2023-04-09T06:49:31.286Z,81.69
2023-04-09T06:51:58.956Z,82.00
2023-04-09T06:54:26.552Z,81.94
2023-04-09T06:56:55.474Z,81.06
2023-04-09T06:59:23.177Z,81.65
2023-04-09T07:01:53.261Z,82.00
2023-04-09T07:04:22.360Z,81.68
2023-04-09T07:06:49.997Z,79.05
2023-04-09T07:09:18.432Z,79.11
2023-04-09T07:11:46.023Z,78.85
2023-04-09T07:14:14.981Z,78.14
2023-04-09T07:16:42.926Z,77.58
2023-04-09T07:19:10.539Z,76.95
2023-04-09T07:21:38.422Z,76.33
2023-04-09T07:24:06.519Z,76.33
2023-04-09T07:26:34.222Z,77.15
2023-04-09T07:29:03.687Z,76.13
2023-04-09T07:31:35.220Z,75.49
2023-04-09T07:34:03.537Z,74.18
2023-04-09T07:36:31.785Z,73.17
2023-04-09T07:38:59.487Z,72.57
2023-04-09T07:41:27.198Z,72.56
2023-04-09T07:43:54.763Z,72.70
2023-04-09T07:46:22.554Z,72.54
2023-04-09T07:48:51.860Z,72.96
2023-04-09T07:51:20.367Z,73.43
2023-04-09T07:53:47.950Z,69.71
2023-04-09T07:56:15.898Z,69.82
2023-04-09T07:58:43.787Z,70.95
2023-04-09T08:01:11.490Z,71.56
2023-04-09T08:03:39.246Z,68.86
2023-04-09T08:06:08.554Z,67.59
2023-04-09T08:08:36.202Z,68.17
2023-04-09T08:11:04.086Z,66.79
2023-04-09T08:13:31.928Z,66.49
2023-04-09T08:16:01.525Z,66.13
2023-04-09T08:18:29.290Z,65.02
2023-04-09T08:20:57.212Z,65.28
2023-04-09T08:23:26.154Z,64.61
2023-04-09T08:25:54.093Z,63.92
2023-04-09T08:28:21.838Z,64.06
2023-04-09T08:30:49.595Z,63.65
2023-04-09T08:33:17.795Z,63.37
2023-04-09T08:35:45.660Z,63.88
2023-04-09T08:38:13.250Z,63.53
2023-04-09T08:40:42.748Z,62.44
2023-04-09T08:43:12.404Z,62.43
2023-04-09T08:45:41.881Z,60.98
2023-04-09T08:48:10.977Z,59.67
2023-04-09T08:50:38.783Z,58.87
2023-04-09T08:53:07.806Z,59.02
2023-04-09T08:55:37.236Z,58.27
2023-04-09T08:58:08.263Z,57.83
2023-04-09T09:00:36.073Z,57.94
2023-04-09T09:03:05.569Z,57.30
2023-04-09T09:05:41.296Z,54.77
2023-04-09T09:08:10.270Z,55.11
2023-04-09T09:10:38.970Z,55.24
2023-04-09T09:13:19.599Z,56.56
2023-04-09T09:15:50.495Z,55.10
2023-04-09T09:18:19.125Z,53.41
2023-04-09T09:20:46.696Z,52.74
2023-04-09T09:23:14.435Z,52.38
2023-04-09T09:25:43.298Z,54.86
2023-04-09T09:28:12.884Z,54.66
2023-04-09T09:30:41.944Z,51.71
2023-04-09T09:33:11.477Z,50.18
2023-04-09T09:35:50.149Z,51.74
2023-04-09T09:38:18.333Z,50.10
2023-04-09T09:40:46.533Z,49.53
2023-04-09T09:43:14.689Z,48.88
2023-04-09T09:45:44.438Z,49.72
2023-04-09T09:48:13.450Z,51.47
2023-04-09T09:50:42.670Z,51.13
2023-04-09T09:53:12.090Z,50.80
2023-04-09T09:55:40.972Z,51.30
2023-04-09T09:58:17.345Z,51.97
2023-04-09T10:00:51.291Z,51.56
2023-04-09T10:03:24.028Z,51.53
2023-04-09T10:05:53.404Z,51.92
2023-04-09T10:08:22.275Z,51.33
2023-04-09T10:10:51.177Z,50.03
2023-04-09T10:13:22.790Z,48.67
2023-04-09T10:15:53.149Z,49.27
2023-04-09T10:18:21.345Z,46.48
2023-04-09T10:20:56.517Z,46.07
2023-04-09T10:23:33.424Z,47.19
2023-04-09T10:26:01.004Z,47.10
2023-04-09T10:28:28.762Z,46.88
2023-04-09T10:30:59.013Z,45.57
2023-04-09T10:33:28.830Z,46.37
2023-04-09T10:36:01.467Z,45.93
2023-04-09T10:38:37.325Z,44.79
2023-04-09T10:41:09.317Z,44.85
2023-04-09T10:43:37.942Z,45.59
2023-04-09T10:46:09.421Z,45.12
2023-04-09T10:48:37.052Z,45.70
2023-04-09T10:51:06.514Z,46.18
2023-04-09T10:53:34.591Z,46.00
2023-04-09T10:56:02.801Z,46.39
2023-04-09T10:58:31.030Z,45.51
2023-04-09T11:01:02.897Z,45.18
2023-04-09T11:03:45.563Z,47.35
2023-04-09T11:06:18.135Z,44.68
2023-04-09T11:08:46.811Z,44.83
2023-04-09T11:11:14.378Z,45.20
2023-04-09T11:13:43.125Z,47.28
2023-04-09T11:16:12.772Z,48.83
2023-04-09T11:18:53.552Z,48.18
2023-04-09T11:21:21.485Z,47.24
2023-04-09T11:23:52.974Z,46.95
2023-04-09T11:26:24.692Z,46.91
2023-04-09T11:28:57.055Z,45.61
2023-04-09T11:31:28.911Z,45.74
2023-04-09T11:33:57.918Z,45.80
2023-04-09T11:36:27.573Z,46.00
2023-04-09T11:38:55.898Z,47.00
2023-04-09T11:41:34.701Z,47.53
2023-04-09T11:44:04.411Z,47.32
2023-04-09T11:46:33.471Z,46.54
2023-04-09T11:49:03.701Z,46.62
2023-04-09T11:51:32.905Z,47.60
2023-04-09T11:54:03.083Z,47.65
2023-04-09T11:56:31.135Z,46.49
2023-04-09T11:58:59.196Z,46.43
2023-04-09T12:01:32.517Z,46.29
2023-04-09T12:04:02.506Z,46.77
2023-04-09T12:06:31.096Z,47.07
2023-04-09T12:09:00.754Z,46.17
2023-04-09T12:11:30.093Z,45.42
2023-04-09T12:14:01.232Z,45.38
2023-04-09T12:16:31.474Z,47.48
2023-04-09T12:19:03.069Z,47.50
2023-04-09T12:21:49.717Z,48.19
2023-04-09T12:24:18.460Z,47.07
2023-04-09T12:26:46.332Z,47.09
2023-04-09T12:29:15.893Z,47.68
2023-04-09T12:31:43.658Z,47.47
2023-04-09T12:34:13.389Z,48.09
2023-04-09T12:36:42.466Z,48.17
2023-04-09T12:39:10.537Z,46.96
2023-04-09T12:41:38.430Z,47.08
2023-04-09T12:44:07.412Z,46.57
2023-04-09T12:46:35.050Z,46.16
2023-04-09T12:49:02.795Z,45.36
2023-04-09T12:51:31.779Z,45.97
2023-04-09T12:53:59.582Z,46.70
2023-04-09T12:56:29.768Z,47.65
2023-04-09T12:58:57.684Z,46.16
2023-04-09T13:01:25.388Z,46.33
2023-04-09T13:03:53.649Z,47.66
2023-04-09T13:06:22.334Z,47.47
2023-04-09T13:08:51.692Z,47.84
2023-04-09T13:11:19.309Z,48.19
2023-04-09T13:13:47.245Z,47.96
2023-04-09T13:16:14.834Z,47.82
2023-04-09T13:18:42.674Z,50.09
2023-04-09T13:21:10.367Z,49.19
2023-04-09T13:23:38.097Z,50.75
2023-04-09T13:26:07.477Z,49.87
2023-04-09T13:28:35.171Z,49.06
2023-04-09T13:31:03.261Z,49.44
2023-04-09T13:33:31.086Z,49.20
2023-04-09T13:35:58.950Z,49.18
2023-04-09T13:38:26.592Z,49.69
2023-04-09T13:40:54.371Z,46.74
2023-04-09T13:43:27.797Z,46.29
2023-04-09T13:45:55.838Z,45.04
2023-04-09T13:48:23.623Z,44.72
2023-04-09T13:50:51.872Z,45.85
2023-04-09T13:53:19.467Z,46.11
2023-04-09T13:55:47.091Z,46.25
2023-04-09T13:58:14.648Z,46.92
2023-04-09T14:00:44.054Z,46.18
2023-04-09T14:03:11.768Z,47.69
2023-04-09T14:05:39.627Z,46.04
2023-04-09T14:08:07.279Z,44.31
2023-04-09T14:10:34.958Z,44.17
2023-04-09T14:13:06.397Z,44.46
2023-04-09T14:15:35.348Z,45.38
2023-04-09T14:18:04.488Z,45.22
2023-04-09T14:20:32.467Z,46.03
2023-04-09T14:23:00.493Z,46.28
2023-04-09T14:25:28.394Z,46.83
2023-04-09T14:27:56.845Z,47.59
2023-04-09T14:30:24.759Z,47.49
2023-04-09T14:32:52.391Z,45.53
2023-04-09T14:35:22.032Z,44.83
2023-04-09T14:37:49.644Z,43.45
2023-04-09T14:40:17.363Z,42.69
2023-04-09T14:42:46.980Z,41.77
2023-04-09T14:45:14.703Z,43.27
2023-04-09T14:47:42.336Z,43.92
2023-04-09T14:50:12.705Z,45.01
2023-04-09T14:52:41.991Z,45.87
2023-04-09T14:55:12.569Z,46.23
2023-04-09T14:57:40.650Z,47.44
2023-04-09T15:00:09.776Z,48.13
2023-04-09T15:02:38.435Z,47.76
2023-04-09T15:05:07.220Z,48.75
2023-04-09T15:07:34.820Z,49.58
2023-04-09T15:10:04.133Z,49.77
2023-04-09T15:12:32.689Z,48.88
2023-04-09T15:15:01.416Z,48.13
2023-04-09T15:17:30.652Z,47.26
2023-04-09T15:19:59.503Z,47.18
2023-04-09T15:22:27.272Z,46.49
2023-04-09T15:24:55.583Z,45.73
2023-04-09T15:27:24.494Z,45.07
2023-04-09T15:29:52.787Z,44.18
2023-04-09T15:32:20.411Z,44.68
2023-04-09T15:34:48.248Z,44.34
2023-04-09T15:37:16.048Z,44.64
2023-04-09T15:39:43.676Z,44.83
2023-04-09T15:42:12.846Z,43.28
2023-04-09T15:44:43.584Z,43.37
2023-04-09T15:47:11.565Z,43.63
2023-04-09T15:49:39.238Z,42.57
2023-04-09T15:52:07.064Z,43.60
2023-04-09T15:54:34.652Z,43.60
2023-04-09T15:57:02.380Z,43.41
2023-04-09T15:59:29.967Z,42.99
2023-04-09T16:01:59.476Z,42.52
2023-04-09T16:04:27.769Z,41.79
2023-04-09T16:06:56.354Z,42.84
2023-04-09T16:09:24.448Z,44.05
2023-04-09T16:11:52.062Z,44.32
2023-04-09T16:14:19.731Z,44.23
2023-04-09T16:16:49.964Z,43.75
2023-04-09T16:19:19.152Z,42.69
2023-04-09T16:21:46.902Z,41.39
2023-04-09T16:24:15.442Z,39.96
2023-04-09T16:26:44.591Z,39.69
2023-04-09T16:29:12.666Z,40.58
2023-04-09T16:31:42.049Z,40.94
2023-04-09T16:34:09.795Z,42.12
2023-04-09T16:36:38.831Z,43.07
2023-04-09T16:39:06.620Z,43.47
2023-04-09T16:41:35.701Z,44.16
2023-04-09T16:44:04.711Z,43.96
2023-04-09T16:46:32.440Z,44.08
2023-04-09T16:49:00.203Z,43.83
2023-04-09T16:51:28.358Z,43.95
2023-04-09T16:53:57.276Z,44.17
2023-04-09T16:56:24.890Z,44.84
2023-04-09T16:58:52.687Z,44.11
2023-04-09T17:01:20.565Z,43.54
2023-04-09T17:03:48.885Z,43.30
2023-04-09T17:06:16.548Z,43.12
2023-04-09T17:08:44.122Z,43.06
2023-04-09T17:11:17.210Z,43.61
2023-04-09T17:13:45.074Z,44.17
2023-04-09T17:16:12.974Z,45.13
2023-04-09T17:18:40.581Z,45.44
2023-04-09T17:21:08.348Z,45.79
2023-04-09T17:23:35.982Z,45.93
2023-04-09T17:26:03.713Z,46.63
2023-04-09T17:28:32.629Z,47.36
2023-04-09T17:31:00.357Z,48.53
2023-04-09T17:33:28.191Z,49.35
2023-04-09T17:35:57.526Z,50.09
2023-04-09T17:38:26.898Z,51.11
2023-04-09T17:40:54.644Z,51.11
2023-04-09T17:43:22.703Z,51.71
2023-04-09T17:45:51.681Z,52.16
2023-04-09T17:48:19.634Z,52.88
2023-04-09T17:50:47.296Z,53.46
2023-04-09T17:53:14.939Z,53.80
2023-04-09T17:55:47.030Z,54.39
2023-04-09T17:58:14.730Z,55.13
2023-04-09T18:00:42.937Z,55.75
2023-04-09T18:03:13.369Z,56.43
2023-04-09T18:05:41.304Z,56.44
2023-04-09T18:08:08.987Z,57.03
2023-04-09T18:10:36.921Z,57.07
2023-04-09T18:13:04.752Z,57.68
2023-04-09T18:15:32.648Z,57.75
2023-04-09T18:18:00.558Z,58.37
2023-04-09T18:20:29.801Z,58.80
2023-04-09T18:22:57.415Z,58.97
2023-04-09T18:25:25.017Z,58.93
2023-04-09T18:27:53.056Z,59.38
2023-04-09T18:30:20.965Z,59.83
2023-04-09T18:32:49.164Z,60.24
2023-04-09T18:35:17.328Z,60.30
2023-04-09T18:37:46.720Z,60.60
2023-04-09T18:40:17.246Z,61.05
2023-04-09T18:42:45.383Z,61.16
2023-04-09T18:45:13.147Z,61.08
2023-04-09T18:47:41.569Z,61.12
2023-04-09T18:50:09.744Z,60.96
2023-04-09T18:52:38.858Z,61.42
2023-04-09T18:55:09.359Z,61.09
2023-04-09T18:57:37.302Z,61.81
2023-04-09T19:00:05.666Z,61.43
2023-04-09T19:02:33.559Z,61.29
2023-04-09T19:05:02.209Z,61.24
2023-04-09T19:07:29.854Z,61.59
2023-04-09T19:09:57.569Z,61.89
2023-04-09T19:12:27.365Z,61.92
2023-04-09T19:14:54.972Z,61.85
2023-04-09T19:17:22.707Z,62.26
2023-04-09T19:19:50.524Z,62.54
2023-04-09T19:22:18.251Z,62.92
2023-04-09T19:24:45.917Z,63.05
2023-04-09T19:27:14.044Z,62.83
2023-04-09T19:29:43.132Z,62.74
2023-04-09T19:32:13.189Z,63.34
2023-04-09T19:34:40.893Z,63.00
2023-04-09T19:37:08.478Z,63.07
2023-04-09T19:39:36.081Z,63.55
2023-04-09T19:42:03.777Z,63.41
2023-04-09T19:44:31.565Z,63.40
2023-04-09T19:47:00.637Z,63.55
2023-04-09T19:49:28.617Z,64.23
2023-04-09T19:51:56.678Z,64.20
2023-04-09T19:54:24.462Z,64.31
2023-04-09T19:56:52.023Z,64.07
2023-04-09T19:59:19.878Z,64.77
2023-04-09T20:01:48.464Z,65.11
2023-04-09T20:04:17.773Z,65.30
2023-04-09T20:06:45.771Z,64.98
2023-04-09T20:09:13.644Z,64.93
2023-04-09T20:11:42.108Z,64.80
2023-04-09T20:14:11.154Z,65.17
2023-04-09T20:16:38.774Z,65.52
2023-04-09T20:19:06.730Z,65.22
2023-04-09T20:21:35.711Z,65.43
2023-04-09T20:24:03.797Z,65.97
2023-04-09T20:26:31.698Z,65.67
2023-04-09T20:28:59.553Z,65.60
2023-04-09T20:31:28.489Z,65.88
2023-04-09T20:33:56.283Z,66.24
2023-04-09T20:36:23.852Z,66.49
2023-04-09T20:38:54.603Z,66.89
2023-04-09T20:41:22.448Z,67.51
2023-04-09T20:43:50.287Z,67.48
2023-04-09T20:46:17.925Z,67.63
2023-04-09T20:48:45.966Z,67.56
2023-04-09T20:51:14.356Z,68.64
2023-04-09T20:53:42.096Z,69.71
2023-04-09T20:56:11.075Z,70.26
2023-04-09T20:58:39.464Z,71.67
2023-04-09T21:01:09.293Z,72.22
2023-04-09T21:03:40.070Z,72.83
2023-04-09T21:06:08.308Z,72.93
2023-04-09T21:08:36.801Z,73.14
2023-04-09T21:11:04.630Z,73.62
2023-04-09T21:13:40.498Z,73.49
2023-04-09T21:16:18.976Z,73.73
2023-04-09T21:18:47.013Z,73.65
2023-04-09T21:21:14.734Z,73.58
2023-04-09T21:23:42.499Z,73.44
2023-04-09T21:26:11.431Z,73.29
2023-04-09T21:28:40.382Z,72.84
2023-04-09T21:31:08.223Z,73.14
2023-04-09T21:33:35.840Z,72.98
2023-04-09T21:36:04.564Z,73.01
2023-04-09T21:38:32.172Z,73.27
2023-04-09T21:41:00.207Z,73.37
2023-04-09T21:43:28.127Z,73.23
2023-04-09T21:45:57.574Z,73.03
2023-04-09T21:48:26.319Z,73.33
2023-04-09T21:50:54.150Z,73.28
2023-04-09T21:53:21.841Z,74.18
2023-04-09T21:55:49.531Z,73.77
2023-04-09T21:58:17.145Z,73.65
2023-04-09T22:00:45.024Z,73.97
2023-04-09T22:03:14.169Z,74.14
2023-04-09T22:05:41.982Z,74.60
2023-04-09T22:08:09.588Z,75.21
2023-04-09T22:10:37.286Z,75.69
2023-04-09T22:13:04.889Z,75.42
2023-04-09T22:15:32.723Z,75.13
2023-04-09T22:18:00.375Z,75.43
2023-04-09T22:20:29.491Z,75.55
2023-04-09T22:22:57.094Z,75.51
2023-04-09T22:25:24.824Z,75.54
2023-04-09T22:27:53.835Z,75.41
2023-04-09T22:30:23.601Z,75.53
2023-04-09T22:32:51.510Z,75.14
2023-04-09T22:35:19.823Z,75.12
2023-04-09T22:37:48.831Z,75.45
2023-04-09T22:40:17.144Z,75.32
2023-04-09T22:42:47.040Z,75.36
2023-04-09T22:45:15.617Z,75.30
2023-04-09T22:47:43.232Z,75.49
2023-04-09T22:50:11.537Z,75.27
2023-04-09T22:52:39.139Z,76.20
2023-04-09T22:55:10.911Z,76.05
2023-04-09T22:57:38.508Z,76.43
2023-04-09T23:00:08.479Z,76.43
2023-04-09T23:02:36.860Z,77.32
2023-04-09T23:05:05.108Z,77.14
2023-04-09T23:07:32.792Z,76.72
2023-04-09T23:10:00.417Z,78.34
2023-04-09T23:12:29.353Z,78.71
2023-04-09T23:14:57.220Z,77.73
2023-04-09T23:17:24.983Z,78.71
2023-04-09T23:19:53.137Z,78.80
2023-04-09T23:22:20.758Z,78.55
2023-04-09T23:24:48.617Z,79.15
2023-04-09T23:27:16.237Z,79.59
2023-04-09T23:29:45.632Z,79.39
2023-04-09T23:32:13.309Z,79.99
2023-04-09T23:34:41.264Z,79.88
2023-04-09T23:37:09.286Z,79.92
2023-04-09T23:39:37.002Z,80.54
2023-04-09T23:42:04.643Z,80.52
2023-04-09T23:44:33.076Z,80.28
2023-04-09T23:47:02.692Z,79.73
2023-04-09T23:49:30.780Z,79.80
2023-04-09T23:51:58.934Z,79.35
2023-04-09T23:54:26.564Z,79.45
2023-04-09T23:56:54.298Z,79.80
2023-04-09T23:59:21.889Z,79.03
